createdAt,value
2023-03-08T00:03:42.121Z,2.96
2023-03-08T00:08:43.937Z,2.98
2023-03-08T00:13:45.695Z,2.98
2023-03-08T00:18:47.866Z,3.02
2023-03-08T00:23:52.627Z,3.01
2023-03-08T00:28:54.455Z,2.98
2023-03-08T00:33:56.223Z,2.93
2023-03-08T00:38:58.179Z,2.90
2023-03-08T00:43:59.824Z,2.86
2023-03-08T00:49:04.306Z,2.77
2023-03-08T00:54:06.263Z,2.75
2023-03-08T00:59:07.978Z,2.74
2023-03-08T01:04:10.159Z,2.64
2023-03-08T01:09:12.672Z,2.65
2023-03-08T01:14:14.455Z,2.67
2023-03-08T01:19:16.083Z,2.85
2023-03-08T01:24:17.691Z,3.21
2023-03-08T01:29:20.192Z,3.97
2023-03-08T01:34:21.784Z,4.33
2023-03-08T01:39:23.414Z,4.58
2023-03-08T01:44:25.060Z,4.75
2023-03-08T01:49:33.450Z,4.81
2023-03-08T01:54:47.992Z,5.08
2023-03-08T01:59:51.678Z,5.22
2023-03-08T02:04:53.709Z,5.31
2023-03-08T02:09:55.457Z,5.59
2023-03-08T02:14:57.768Z,5.54
2023-03-08T02:20:13.952Z,5.69
2023-03-08T02:25:17.205Z,5.66
2023-03-08T02:30:25.285Z,5.75
2023-03-08T02:35:29.165Z,5.71
2023-03-08T02:40:30.773Z,5.76
2023-03-08T02:45:34.128Z,5.88
2023-03-08T02:50:39.363Z,5.85
2023-03-08T02:55:42.781Z,5.72
2023-03-08T03:00:46.280Z,5.58
2023-03-08T03:05:47.957Z,5.47
2023-03-08T03:10:54.569Z,5.43
2023-03-08T03:15:56.306Z,5.42
2023-03-08T03:21:03.865Z,5.38
2023-03-08T03:26:06.536Z,5.48
2023-03-08T03:31:12.675Z,5.42
2023-03-08T03:36:17.361Z,5.41
2023-03-08T03:41:21.870Z,5.40
2023-03-08T03:46:27.486Z,5.39
2023-03-08T03:51:32.085Z,5.44
2023-03-08T03:56:58.104Z,5.54
2023-03-08T04:02:02.593Z,5.60
2023-03-08T04:07:12.868Z,5.73
2023-03-08T04:12:19.498Z,5.71
2023-03-08T04:17:21.226Z,5.95
2023-03-08T04:22:26.847Z,5.89
2023-03-08T04:27:36.193Z,6.00
2023-03-08T04:32:38.121Z,5.94
2023-03-08T04:37:40.803Z,5.99
2023-03-08T04:42:46.523Z,5.94
2023-03-08T04:47:52.008Z,6.07
2023-03-08T04:52:54.905Z,6.16
2023-03-08T04:57:56.700Z,6.30
2023-03-08T05:02:59.562Z,6.27
2023-03-08T05:08:05.256Z,6.30
2023-03-08T05:13:08.798Z,6.33
2023-03-08T05:18:10.702Z,6.36
2023-03-08T05:23:13.520Z,6.40
2023-03-08T05:28:17.034Z,6.32
2023-03-08T05:33:21.124Z,6.29
2023-03-08T05:38:23.205Z,6.21
2023-03-08T05:43:24.927Z,6.15
2023-03-08T05:48:27.004Z,6.08
2023-03-08T05:53:28.793Z,5.99
2023-03-08T05:58:30.889Z,5.89
2023-03-08T06:03:34.999Z,5.90
2023-03-08T06:08:37.292Z,5.86
2023-03-08T06:13:41.717Z,5.86
2023-03-08T06:18:44.243Z,5.87
2023-03-08T06:23:49.034Z,5.91
2023-03-08T06:28:50.956Z,5.97
2023-03-08T06:33:53.179Z,6.06
2023-03-08T06:39:00.052Z,6.36
2023-03-08T06:44:02.186Z,6.66
2023-03-08T06:49:04.331Z,6.92
2023-03-08T06:54:08.128Z,7.07
2023-03-08T06:59:09.856Z,7.33
2023-03-08T07:04:11.771Z,7.54
2023-03-08T07:09:14.012Z,7.70
2023-03-08T07:14:16.294Z,7.86
2023-03-08T07:19:17.893Z,7.89
2023-03-08T07:24:19.687Z,8.02
2023-03-08T07:29:21.332Z,8.22
2023-03-08T07:34:23.138Z,8.18
2023-03-08T07:39:24.804Z,8.27
2023-03-08T07:44:26.420Z,8.38
2023-03-08T07:49:28.209Z,8.55
2023-03-08T07:54:29.974Z,8.81
2023-03-08T07:59:32.133Z,8.93
2023-03-08T08:04:35.749Z,9.05
2023-03-08T08:09:37.645Z,9.20
2023-03-08T08:14:39.265Z,9.45
2023-03-08T08:19:40.896Z,9.61
2023-03-08T08:24:42.570Z,9.85
2023-03-08T08:29:46.280Z,9.85
2023-03-08T08:34:47.952Z,10.06
2023-03-08T08:39:49.576Z,10.23
2023-03-08T08:44:53.303Z,10.36
2023-03-08T08:49:54.944Z,10.42
2023-03-08T08:54:57.902Z,10.72
2023-03-08T08:59:59.599Z,10.96
2023-03-08T09:05:01.270Z,11.06
2023-03-08T09:10:03.236Z,11.06
2023-03-08T09:15:06.220Z,11.17
2023-03-08T09:20:09.624Z,11.36
2023-03-08T09:25:12.189Z,11.57
2023-03-08T09:30:14.784Z,11.79
2023-03-08T09:35:17.164Z,11.85
2023-03-08T09:40:21.277Z,11.96
2023-03-08T09:45:29.624Z,12.06
2023-03-08T09:50:44.273Z,12.15
2023-03-08T09:55:52.821Z,12.31
2023-03-08T10:01:06.523Z,12.68
2023-03-08T10:06:44.163Z,12.79
2023-03-08T10:12:00.686Z,12.92
2023-03-08T10:17:13.001Z,13.09
2023-03-08T10:22:29.807Z,13.16
2023-03-08T10:27:34.766Z,13.13
2023-03-08T10:32:43.820Z,13.10
2023-03-08T10:37:51.003Z,13.00
2023-03-08T10:43:00.925Z,12.78
2023-03-08T10:48:04.997Z,12.87
2023-03-08T10:53:16.045Z,12.82
2023-03-08T10:58:29.701Z,12.76
2023-03-08T11:03:32.388Z,12.70
2023-03-08T11:08:39.913Z,12.76
2023-03-08T11:13:49.556Z,12.65
2023-03-08T11:19:06.618Z,12.47
2023-03-08T11:24:27.550Z,12.64
2023-03-08T11:29:29.135Z,12.81
2023-03-08T11:34:46.337Z,12.73
2023-03-08T11:40:01.307Z,12.65
2023-03-08T11:45:18.635Z,12.60
2023-03-08T11:50:30.489Z,12.64
2023-03-08T11:56:02.165Z,12.46
2023-03-08T12:01:14.942Z,12.48
2023-03-08T12:06:49.311Z,12.25
2023-03-08T12:12:03.429Z,12.30
2023-03-08T12:17:40.976Z,12.06
2023-03-08T12:22:46.006Z,11.60
2023-03-08T12:27:55.778Z,11.48
2023-03-08T12:33:00.154Z,11.39
2023-03-08T12:38:22.131Z,11.44
2023-03-08T12:43:23.718Z,11.41
2023-03-08T12:48:44.503Z,11.30
2023-03-08T12:53:49.088Z,11.32
2023-03-08T12:58:54.717Z,11.25
2023-03-08T13:03:56.645Z,11.24
2023-03-08T13:09:20.694Z,11.14
2023-03-08T13:14:38.236Z,11.17
2023-03-08T13:19:43.001Z,11.27
2023-03-08T13:24:56.389Z,11.34
2023-03-08T13:30:28.244Z,11.45
2023-03-08T13:35:29.927Z,11.42
2023-03-08T13:40:31.711Z,11.42
2023-03-08T13:45:33.398Z,11.53
2023-03-08T13:50:43.439Z,11.65
2023-03-08T13:55:47.873Z,11.72
2023-03-08T14:01:02.539Z,11.81
2023-03-08T14:06:14.765Z,11.94
2023-03-08T14:11:29.499Z,12.10
2023-03-08T14:16:34.310Z,12.09
2023-03-08T14:21:36.220Z,12.20
2023-03-08T14:26:41.047Z,12.27
2023-03-08T14:31:56.743Z,12.29
2023-03-08T14:37:03.049Z,12.37
2023-03-08T14:42:17.338Z,12.40
2023-03-08T14:47:31.170Z,12.38
2023-03-08T14:52:36.290Z,12.28
2023-03-08T14:57:38.126Z,12.30
2023-03-08T15:02:40.692Z,12.23
2023-03-08T15:07:43.736Z,12.22
2023-03-08T15:12:45.433Z,12.32
2023-03-08T15:17:47.666Z,12.43
2023-03-08T15:22:53.241Z,12.53
2023-03-08T15:27:55.203Z,12.62
2023-03-08T15:32:59.441Z,12.62
2023-03-08T15:38:01.248Z,12.55
2023-03-08T15:43:02.892Z,12.49
2023-03-08T15:48:07.148Z,12.47
2023-03-08T15:53:09.960Z,12.50
2023-03-08T15:58:12.133Z,12.52
2023-03-08T16:03:14.483Z,12.51
2023-03-08T16:08:16.105Z,12.48
2023-03-08T16:13:22.027Z,12.41
2023-03-08T16:18:23.780Z,12.39
2023-03-08T16:23:26.143Z,12.28
2023-03-08T16:28:28.581Z,12.18
2023-03-08T16:33:30.300Z,12.17
2023-03-08T16:38:32.090Z,12.11
2023-03-08T16:43:45.787Z,12.08
2023-03-08T16:48:50.263Z,12.06
2023-03-08T16:53:52.185Z,12.02
2023-03-08T16:58:55.407Z,11.94
2023-03-08T17:03:57.836Z,11.84
2023-03-08T17:08:59.624Z,11.86
2023-03-08T17:14:04.076Z,11.80
2023-03-08T17:19:07.529Z,11.72
2023-03-08T17:24:12.789Z,11.72
2023-03-08T17:29:15.100Z,11.73
2023-03-08T17:34:17.878Z,11.58
2023-03-08T17:39:19.925Z,11.46
2023-03-08T17:44:21.549Z,11.32
2023-03-08T17:49:25.015Z,11.16
2023-03-08T17:54:26.653Z,11.13
2023-03-08T17:59:28.486Z,11.07
2023-03-08T18:04:30.233Z,10.92
2023-03-08T18:09:32.427Z,10.82
2023-03-08T18:14:40.036Z,10.79
2023-03-08T18:19:42.991Z,10.71
2023-03-08T18:24:44.987Z,10.64
2023-03-08T18:29:46.669Z,10.59
2023-03-08T18:34:48.412Z,10.56
2023-03-08T18:39:54.638Z,10.44
2023-03-08T18:44:56.672Z,10.33
2023-03-08T18:49:58.309Z,10.09
2023-03-08T18:55:00.041Z,10.13
2023-03-08T19:00:03.020Z,10.13
2023-03-08T19:05:05.116Z,10.11
2023-03-08T19:10:07.058Z,10.06
2023-03-08T19:15:09.534Z,10.07
2023-03-08T19:20:11.788Z,10.08
2023-03-08T19:25:15.930Z,10.07
2023-03-08T19:30:17.927Z,10.09
2023-03-08T19:35:20.836Z,10.24
2023-03-08T19:40:22.642Z,10.44
2023-03-08T19:45:25.459Z,10.49
2023-03-08T19:50:27.822Z,10.60
2023-03-08T19:55:29.462Z,10.61
2023-03-08T20:00:31.126Z,10.57
2023-03-08T20:05:35.317Z,10.60
2023-03-08T20:10:37.404Z,10.73
2023-03-08T20:15:39.111Z,10.87
2023-03-08T20:20:40.896Z,10.88
2023-03-08T20:25:45.658Z,10.87
2023-03-08T20:30:48.349Z,10.87
2023-03-08T20:36:00.526Z,10.82
2023-03-08T20:41:12.243Z,10.87
2023-03-08T20:46:16.943Z,10.80
2023-03-08T20:51:20.911Z,10.85
2023-03-08T20:56:24.630Z,10.83
2023-03-08T21:01:32.175Z,10.76
2023-03-08T21:06:33.933Z,10.74
2023-03-08T21:11:35.668Z,10.78
2023-03-08T21:16:37.562Z,10.82
2023-03-08T21:21:41.512Z,10.80
2023-03-08T21:26:44.309Z,10.79
2023-03-08T21:31:51.446Z,10.83
2023-03-08T21:36:53.117Z,10.84
2023-03-08T21:41:57.102Z,10.84
2023-03-08T21:46:58.893Z,10.80
2023-03-08T21:52:01.175Z,10.83
2023-03-08T21:57:03.050Z,10.81
2023-03-08T22:02:04.979Z,10.96
2023-03-08T22:07:06.690Z,11.07
2023-03-08T22:12:08.682Z,10.98
2023-03-08T22:17:10.356Z,10.90
2023-03-08T22:22:12.147Z,10.90
2023-03-08T22:27:14.405Z,10.92
2023-03-08T22:32:16.108Z,10.88
2023-03-08T22:37:17.886Z,10.86
2023-03-08T22:42:19.548Z,10.81
2023-03-08T22:47:21.218Z,10.76
2023-03-08T22:52:23.546Z,10.69
2023-03-08T22:57:25.284Z,10.67
2023-03-08T23:02:28.451Z,10.63
2023-03-08T23:07:30.544Z,10.62
2023-03-08T23:12:32.329Z,10.62
2023-03-08T23:17:34.267Z,10.62
2023-03-08T23:22:35.925Z,10.61
2023-03-08T23:27:37.564Z,10.62
2023-03-08T23:32:39.503Z,10.58
2023-03-08T23:37:41.393Z,10.49
2023-03-08T23:42:43.060Z,10.40
2023-03-08T23:47:44.656Z,10.35
2023-03-08T23:52:46.401Z,10.24
2023-03-08T23:57:48.023Z,10.17
